Time;durP1;ratioP1;P1;durP2;ratioP2;P2;SDS_P1;SDS_P2;PMS_P1;PMS_P2;Temp;Humidity;BMP_temperature;BMP_pressure;BME280_temperature;BME280_humidity;BME280_pressure;Samples;Min_cycle;Max_cycle;Signal;HPM_P1;HPM_P2
2023/01/04 00:09:22;;;;;;;;;;;;;;;;;;;;;
2023/01/04 00:12:15;;;;;;;;;2.50;2.50;;;;;7.77;100.00;101513.03;4832426;29;69086;-94
2023/01/04 00:18:03;;;;;;;;;1.25;1.25;;;;;8.94;100.00;101691.97;4898054;29;45485;-94
2023/01/04 00:21:08;;;;;;;;;4.00;4.00;;;;;8.97;100.00;101699.88;4889412;29;44863;-95
2023/01/04 00:24:15;;;;;;;;;4.25;3.25;;;;;8.50;100.00;101617.97;4910412;29;45313;-94
2023/01/04 00:26:46;;;;;;;;;1.00;1.00;;;;;7.38;100.00;101419.81;4883568;29;45303;-93
2023/01/04 00:29:53;;;;;;;;;1.75;1.75;;;;;6.98;100.00;101351.19;4898976;29;45352;-94
2023/01/04 00:32:58;;;;;;;;;3.00;3.00;;;;;9.01;100.00;101684.09;4915596;29;45459;-94
2023/01/04 00:39:09;;;;;;;;;2.00;2.00;;;;;8.55;100.00;101615.34;4906870;28;45636;-94
2023/01/04 00:48:44;;;;;;;;;1.75;1.75;;;;;8.60;100.00;101629.41;4959957;28;44700;-93
2023/01/04 00:51:57;;;;;;;;;3.75;2.00;;;;;7.40;100.00;101423.34;4930008;28;46651;-95
2023/01/04 00:58:37;;;;;;;;;;;;;;;;;;;;;
2023/01/04 01:15:04;;;;;;;;;3.00;3.00;;;;;9.20;100.00;101668.31;4895232;29;45525;-93
2023/01/04 09:51:24;;;;;;;;;3.25;2.00;;;;;10.57;100.00;101493.06;4907160;28;45205;-90
2023/01/04 09:53:58;;;;;;;;;1.75;1.75;;;;;10.99;100.00;101565.97;4907382;28;45296;-90
2023/01/04 09:56:34;;;;;;;;;2.75;1.25;;;;;10.24;100.00;101435.03;4894334;29;47642;-90
2023/01/04 09:59:05;;;;;;;;;2.25;2.25;;;;;10.67;100.00;101518.53;4913175;29;45392;-91
2023/01/04 10:02:15;;;;;;;;;0.25;0.25;;;;;11.08;100.00;101588.81;4915496;29;45408;-94
2023/01/04 10:04:46;;;;;;;;;3.00;3.00;;;;;11.10;100.00;101591.47;4895827;29;45441;-96
2023/01/04 10:07:28;;;;;;;;;0.00;0.00;;;;;10.81;100.00;101543.16;4913408;29;45618;-94
2023/01/04 10:09:54;;;;;;;;;1.50;1.50;;;;;9.49;100.00;101321.78;4896655;29;45420;-94
2023/01/04 10:12:29;;;;;;;;;3.75;3.75;;;;;11.16;100.00;101602.91;4898673;29;45425;-92
2023/01/04 10:15:44;;;;;;;;;2.00;2.00;;;;;9.31;100.00;101286.69;4903376;29;45416;-95
2023/01/04 12:14:46;;;;;;;;;1.00;1.00;;;;;11.39;100.00;101519.81;1371960;23;46481;-88
2023/01/04 12:17:35;;;;;;;;;2.00;1.00;;;;;10.17;100.00;101318.81;4850285;29;45361;-94
2023/01/04 12:20:16;;;;;;;;;1.75;1.75;;;;;10.71;100.00;101409.22;4856332;29;45417;-92
2023/01/04 21:23:11;;;;;;;;;1.50;1.50;;;;;12.82;100.00;101513.81;3630403;23;47200;-89
2023/01/04 21:26:08;;;;;;;;;0.75;0.75;;;;;12.44;100.00;101463.06;4880397;29;45553;-91
2023/01/04 21:29:27;;;;;;;;;1.00;0.00;;;;;12.80;100.00;101505.88;4883048;29;45342;-91
2023/01/04 21:32:15;;;;;;;;;2.00;0.00;;;;;11.74;100.00;101339.41;4875300;29;47229;-94
2023/01/04 21:35:30;;;;;;;;;1.00;1.00;;;;;12.76;100.00;101523.59;4871581;29;45438;-90
2023/01/04 21:38:02;;;;;;;;;1.00;1.00;;;;;11.64;100.00;101324.50;4865803;29;45177;-91
2023/01/04 21:40:28;;;;;;;;;0.25;0.25;;;;;12.74;100.00;101522.75;4862543;29;45240;-89
2023/01/04 21:42:55;;;;;;;;;3.00;1.25;;;;;11.04;100.00;101222.03;4879717;29;46358;-90
2023/01/04 21:45:30;;;;;;;;;0.00;0.00;;;;;12.00;100.00;101375.28;4869017;29;45446;-93
2023/01/04 21:47:56;;;;;;;;;1.00;1.00;;;;;12.44;100.00;101453.31;4881484;29;45405;-91
2023/01/04 21:51:37;;;;;;;;;;;;;;;;;;;;;
2023/01/04 21:54:13;;;;;;;;;1.00;0.00;;;;;12.44;100.00;101468.38;4797054;29;45601;-92
2023/01/04 21:56:43;;;;;;;;;0.75;0.75;;;;;12.04;100.00;101381.41;4797909;29;45346;-93
2023/01/04 22:03:05;;;;;;;;;0.00;0.00;;;;;10.59;100.00;101166.97;4756310;29;44793;-94
2023/01/04 22:09:42;;;;;;;;;1.00;1.00;;;;;11.23;100.00;101266.78;4757180;29;45374;-90
2023/01/04 22:12:08;;;;;;;;;1.00;1.00;;;;;11.09;100.00;101240.50;4766951;29;45607;-90
2023/01/04 22:14:49;;;;;;;;;0.00;0.00;;;;;12.43;100.00;101463.94;4767833;29;44821;-90
2023/01/04 22:21:27;;;;;;;;;0.00;0.00;;;;;12.00;100.00;101403.56;4745535;30;45465;-94
2023/01/04 22:24:01;;;;;;;;;0.00;0.00;;;;;11.11;100.00;101244.00;4724753;30;45308;-93
2023/01/04 22:26:54;;;;;;;;;1.00;0.00;;;;;12.36;100.00;101447.25;4740212;30;45586;-91
2023/01/04 22:40:00;;;;;;;;;0.00;0.00;;;;;11.51;100.00;101338.81;4727149;29;45346;-93
2023/01/04 22:43:02;;;;;;;;;;;;;;;;;;;;;
2023/01/04 22:53:31;;;;;;;;;1.00;1.00;;;;;10.99;100.00;101266.16;4673301;30;45352;-94
2023/01/04 22:56:30;;;;;;;;;1.00;0.00;;;;;12.65;100.00;101549.41;4657740;30;45314;-96
2023/01/04 23:16:44;;;;;;;;;0.00;0.00;;;;;12.11;100.00;101489.09;4740871;30;45599;-93
2023/01/04 23:23:21;;;;;;;;;1.00;1.00;;;;;11.23;100.00;101364.69;4745847;29;45460;-94
2023/01/04 23:37:28;;;;;;;;;0.00;0.00;;;;;12.56;100.00;101591.97;4743362;29;44960;-94
2023/01/04 23:40:33;;;;;;;;;1.00;1.00;;;;;10.79;100.00;101333.34;4744208;30;45392;-92
